Time,TemperatureF,DewpointF,PressureIn,WindDirection,WindDirectionDegrees,WindSpeedMPH,WindSpeedGustMPH,Humidity,HourlyPrecipIn,Conditions,Clouds,dailyrainin,SolarRadiationWatts/m^2,SoftwareType,DateUTC
2013-02-01 00:00:00,6.7,0.0,30.11,WSW,253,5.7,6.3,76,0.00,,,0.00,0,TxWx,2013-02-01 06:00:00,
2013-02-01 00:05:00,6.5,0.0,30.11,WNW,297,16.2,16.2,75,0.00,,,0.00,0,TxWx,2013-02-01 06:05:00,
2013-02-01 00:10:00,6.4,-2.0,30.11,WNW,288,9.6,10.2,74,0.00,,,0.00,0,TxWx,2013-02-01 06:10:00,
2013-02-01 00:16:00,6.2,-2.0,30.11,WSW,246,10.2,10.2,73,0.00,,,0.00,0,TxWx,2013-02-01 06:16:00,
2013-02-01 00:21:00,6.3,-2.0,30.12,West,270,11.1,11.1,72,0.00,,,0.00,0,TxWx,2013-02-01 06:21:00,
2013-02-01 00:26:00,6.1,-2.0,30.12,WNW,284,13.8,14.1,72,0.00,,,0.00,0,TxWx,2013-02-01 06:26:00,
2013-02-01 00:31:00,6.1,-2.0,30.12,West,277,16.5,16.5,72,0.00,,,0.00,0,TxWx,2013-02-01 06:31:00,
2013-02-01 00:36:00,6.0,-2.0,30.13,West,281,13.2,16.2,71,0.00,,,0.00,0,TxWx,2013-02-01 06:36:00,
2013-02-01 00:41:00,6.1,-2.0,30.13,NW,319,5.1,5.7,72,0.00,,,0.00,0,TxWx,2013-02-01 06:41:00,
2013-02-01 00:46:00,5.9,-2.0,30.13,West,260,9.6,9.9,72,0.00,,,0.00,0,TxWx,2013-02-01 06:46:00,
2013-02-01 00:52:00,5.8,-2.0,30.13,NW,321,8.7,9.6,72,0.00,,,0.00,0,TxWx,2013-02-01 06:52:00,
2013-02-01 00:57:00,5.6,-2.0,30.14,WNW,286,7.8,9.9,72,0.00,,,0.00,0,TxWx,2013-02-01 06:57:00,
2013-02-01 01:02:00,5.4,-3.0,30.14,WNW,284,11.1,14.4,72,0.00,,,0.00,0,TxWx,2013-02-01 07:02:00,
2013-02-01 01:07:00,5.4,-3.0,30.14,SW,223,7.5,13.5,72,0.00,,,0.00,0,TxWx,2013-02-01 07:07:00,
2013-02-01 01:13:00,5.5,-3.0,30.15,WNW,284,7.5,7.5,72,0.00,,,0.00,0,TxWx,2013-02-01 07:13:00,
2013-02-01 01:18:00,5.4,-3.0,30.15,WNW,289,12.6,12.6,73,0.00,,,0.00,0,TxWx,2013-02-01 07:18:00,
2013-02-01 01:23:00,5.3,-3.0,30.15,WNW,296,11.7,11.7,72,0.00,,,0.00,0,TxWx,2013-02-01 07:23:00,
2013-02-01 01:28:00,5.3,-3.0,30.15,NW,304,6.3,7.2,72,0.00,,,0.00,0,TxWx,2013-02-01 07:28:00,
2013-02-01 01:33:00,5.3,-3.0,30.15,West,266,6.9,7.8,73,0.00,,,0.00,0,TxWx,2013-02-01 07:33:00,
2013-02-01 01:38:00,5.3,-3.0,30.16,WSW,256,8.1,8.4,73,0.00,,,0.00,0,TxWx,2013-02-01 07:38:00,
2013-02-01 01:43:00,5.1,-3.0,30.16,WNW,295,5.7,5.7,73,0.00,,,0.00,0,TxWx,2013-02-01 07:43:00,
2013-02-01 01:49:00,5.0,-3.0,30.16,West,276,15.9,15.9,72,0.00,,,0.00,0,TxWx,2013-02-01 07:49:00,
2013-02-01 01:54:00,4.9,-3.0,30.16,NW,305,9.3,10.2,72,0.00,,,0.00,0,TxWx,2013-02-01 07:54:00,
2013-02-01 01:59:00,5.0,-3.0,30.16,WNW,296,10.2,10.8,73,0.00,,,0.00,0,TxWx,2013-02-01 07:59:00,
2013-02-01 02:04:00,5.1,-3.0,30.17,WNW,296,13.5,13.5,73,0.00,,,0.00,0,TxWx,2013-02-01 08:04:00,
2013-02-01 02:09:00,4.9,-3.0,30.17,West,274,9.6,9.6,73,0.00,,,0.00,0,TxWx,2013-02-01 08:09:00,
2013-02-01 02:15:00,4.9,-3.0,30.17,NW,313,7.8,7.8,73,0.00,,,0.00,0,TxWx,2013-02-01 08:15:00,
2013-02-01 02:20:00,5.0,-3.0,30.18,WNW,301,7.8,7.8,74,0.00,,,0.00,0,TxWx,2013-02-01 08:20:00,
2013-02-01 02:25:00,4.8,-2.0,30.18,West,261,7.5,8.1,74,0.00,,,0.00,0,TxWx,2013-02-01 08:25:00,
2013-02-01 02:30:00,4.7,-2.0,30.18,West,271,8.7,8.7,74,0.00,,,0.00,0,TxWx,2013-02-01 08:30:00,
2013-02-01 02:36:00,4.6,-2.0,30.19,West,267,15.3,15.3,75,0.00,,,0.00,0,TxWx,2013-02-01 08:36:00,
2013-02-01 02:41:00,4.6,-2.0,30.19,West,281,14.7,14.7,74,0.00,,,0.00,0,TxWx,2013-02-01 08:41:00,
2013-02-01 02:46:00,4.4,-3.0,30.19,West,275,9.3,9.6,75,0.00,,,0.00,0,TxWx,2013-02-01 08:46:00,
2013-02-01 02:51:00,4.4,-3.0,30.19,West,276,11.1,11.7,75,0.00,,,0.00,0,TxWx,2013-02-01 08:51:00,
2013-02-01 02:57:00,4.4,-3.0,30.19,WNW,282,7.5,8.7,75,0.00,,,0.00,0,TxWx,2013-02-01 08:57:00,
2013-02-01 03:02:00,4.3,-3.0,30.20,West,266,9.9,10.8,75,0.00,,,0.00,0,TxWx,2013-02-01 09:02:00,
2013-02-01 03:07:00,4.3,-3.0,30.20,WNW,300,7.5,7.5,76,0.00,,,0.00,0,TxWx,2013-02-01 09:07:00,
2013-02-01 03:12:00,4.2,-3.0,30.20,WSW,240,8.7,8.7,75,0.00,,,0.00,0,TxWx,2013-02-01 09:12:00,
2013-02-01 03:17:00,4.2,-3.0,30.20,WSW,248,6.6,7.2,76,0.00,,,0.00,0,TxWx,2013-02-01 09:17:00,
2013-02-01 03:23:00,4.1,-3.0,30.21,West,274,12.9,12.9,76,0.00,,,0.00,0,TxWx,2013-02-01 09:23:00,
2013-02-01 03:28:00,3.8,-3.0,30.21,West,267,15.9,17.7,76,0.00,,,0.00,0,TxWx,2013-02-01 09:28:00,
2013-02-01 03:33:00,3.9,-3.0,30.21,WSW,247,5.7,6.0,76,0.00,,,0.00,0,TxWx,2013-02-01 09:33:00,
2013-02-01 03:38:00,3.8,-3.0,30.21,West,268,9.0,10.5,76,0.00,,,0.00,0,TxWx,2013-02-01 09:38:00,
2013-02-01 03:43:00,3.8,-3.0,30.22,West,268,9.0,9.0,76,0.00,,,0.00,0,TxWx,2013-02-01 09:43:00,
2013-02-01 03:49:00,3.7,-3.0,30.22,West,276,6.0,6.0,75,0.00,,,0.00,0,TxWx,2013-02-01 09:49:00,
2013-02-01 03:54:00,3.8,-3.0,30.22,WNW,283,9.3,9.6,76,0.00,,,0.00,0,TxWx,2013-02-01 09:54:00,
2013-02-01 03:59:00,3.7,-3.0,30.22,West,272,17.4,17.4,76,0.00,,,0.00,0,TxWx,2013-02-01 09:59:00,
2013-02-01 04:04:00,3.7,-3.0,30.22,West,268,14.1,15.6,76,0.00,,,0.00,0,TxWx,2013-02-01 10:04:00,
2013-02-01 04:10:00,3.6,-3.0,30.23,West,278,9.6,9.6,76,0.00,,,0.00,0,TxWx,2013-02-01 10:10:00,
2013-02-01 04:16:00,3.5,-4.0,30.23,West,275,8.7,9.0,76,0.00,,,0.00,0,TxWx,2013-02-01 10:16:00,
2013-02-01 04:21:00,3.3,-4.0,30.23,WSW,254,14.4,14.4,76,0.00,,,0.00,0,TxWx,2013-02-01 10:21:00,
2013-02-01 04:26:00,3.4,-4.0,30.23,WNW,285,12.0,12.0,76,0.00,,,0.00,0,TxWx,2013-02-01 10:26:00,
2013-02-01 04:31:00,3.4,-4.0,30.23,West,272,10.2,12.3,76,0.00,,,0.00,0,TxWx,2013-02-01 10:31:00,
2013-02-01 04:36:00,3.2,-4.0,30.24,WNW,284,9.9,9.9,76,0.00,,,0.00,0,TxWx,2013-02-01 10:36:00,
2013-02-01 04:42:00,3.2,-4.0,30.24,WNW,297,6.0,6.3,76,0.00,,,0.00,0,TxWx,2013-02-01 10:42:00,
2013-02-01 04:47:00,3.0,-4.0,30.24,West,266,14.7,18.6,76,0.00,,,0.00,0,TxWx,2013-02-01 10:47:00,
2013-02-01 04:52:00,3.0,-4.0,30.24,WNW,282,11.1,12.9,77,0.00,,,0.00,0,TxWx,2013-02-01 10:52:00,
2013-02-01 04:57:00,3.0,-4.0,30.24,WNW,287,7.5,7.8,76,0.00,,,0.00,0,TxWx,2013-02-01 10:57:00,
2013-02-01 05:02:00,2.9,-4.0,30.24,West,267,10.2,10.2,76,0.00,,,0.00,0,TxWx,2013-02-01 11:02:00,
2013-02-01 05:07:00,2.8,-4.0,30.25,WNW,302,7.8,9.0,76,0.00,,,0.00,0,TxWx,2013-02-01 11:07:00,
2013-02-01 05:13:00,2.9,-4.0,30.24,WNW,296,9.9,9.9,76,0.00,,,0.00,0,TxWx,2013-02-01 11:13:00,
2013-02-01 05:18:00,3.0,-4.0,30.25,WSW,251,3.3,3.3,77,0.00,,,0.00,0,TxWx,2013-02-01 11:18:00,
2013-02-01 05:23:00,2.5,-4.0,30.25,WNW,282,15.9,16.8,77,0.00,,,0.00,0,TxWx,2013-02-01 11:23:00,
2013-02-01 05:28:00,2.5,-4.0,30.25,WNW,290,8.4,9.6,77,0.00,,,0.00,0,TxWx,2013-02-01 11:28:00,
2013-02-01 05:33:00,2.5,-4.0,30.25,WNW,299,6.3,7.5,76,0.00,,,0.00,0,TxWx,2013-02-01 11:33:00,
2013-02-01 05:38:00,2.5,-4.0,30.25,WSW,258,5.1,5.4,76,0.00,,,0.00,0,TxWx,2013-02-01 11:38:00,
2013-02-01 05:43:00,2.4,-5.0,30.25,West,274,7.5,7.8,77,0.00,,,0.00,0,TxWx,2013-02-01 11:43:00,
2013-02-01 05:48:00,2.1,-5.0,30.25,West,272,16.8,19.2,76,0.00,,,0.00,0,TxWx,2013-02-01 11:48:00,
2013-02-01 05:54:00,2.2,-5.0,30.26,WNW,286,9.3,11.4,77,0.00,,,0.00,0,TxWx,2013-02-01 11:54:00,
2013-02-01 05:59:00,2.1,-5.0,30.26,West,273,7.5,8.4,77,0.00,,,0.00,0,TxWx,2013-02-01 11:59:00,
2013-02-01 06:04:00,2.2,-5.0,30.26,West,274,12.3,12.6,77,0.00,,,0.00,0,TxWx,2013-02-01 12:04:00,
2013-02-01 06:09:00,2.0,-5.0,30.26,WNW,292,8.1,9.0,77,0.00,,,0.00,0,TxWx,2013-02-01 12:09:00,
2013-02-01 06:14:00,2.0,-5.0,30.26,West,268,9.9,11.1,77,0.00,,,0.00,0,TxWx,2013-02-01 12:14:00,
2013-02-01 06:19:00,2.0,-5.0,30.26,West,278,6.9,6.9,77,0.00,,,0.00,0,TxWx,2013-02-01 12:19:00,
2013-02-01 06:24:00,1.9,-5.0,30.26,WNW,282,9.9,9.9,77,0.00,,,0.00,0,TxWx,2013-02-01 12:24:00,
2013-02-01 06:29:00,1.8,-5.0,30.27,West,264,8.7,10.2,77,0.00,,,0.00,0,TxWx,2013-02-01 12:29:00,
2013-02-01 06:34:00,1.8,-5.0,30.27,NW,321,8.4,8.4,77,0.00,,,0.00,0,TxWx,2013-02-01 12:34:00,
2013-02-01 06:40:00,1.8,-5.0,30.27,West,277,4.5,5.1,77,0.00,,,0.00,0,TxWx,2013-02-01 12:40:00,
2013-02-01 06:45:00,1.9,-5.0,30.27,WNW,298,6.9,7.2,77,0.00,,,0.00,0,TxWx,2013-02-01 12:45:00,
2013-02-01 06:50:00,1.7,-5.0,30.27,West,280,12.6,13.2,77,0.00,,,0.00,2,TxWx,2013-02-01 12:50:00,
2013-02-01 06:55:00,1.6,-5.0,30.27,West,277,9.6,11.7,77,0.00,,,0.00,3,TxWx,2013-02-01 12:55:00,
2013-02-01 07:01:00,1.8,-4.0,30.27,West,259,7.2,7.2,78,0.00,,,0.00,6,TxWx,2013-02-01 13:01:00,
2013-02-01 07:06:00,1.7,-4.0,30.28,West,259,9.0,10.5,78,0.00,,,0.00,12,TxWx,2013-02-01 13:06:00,
2013-02-01 07:11:00,1.7,-4.0,30.28,West,269,7.5,7.5,78,0.00,,,0.00,25,TxWx,2013-02-01 13:11:00,
2013-02-01 07:16:00,1.6,-4.0,30.28,West,277,13.8,13.8,78,0.00,,,0.00,60,TxWx,2013-02-01 13:16:00,
2013-02-01 07:22:00,1.6,-5.0,30.28,WSW,248,10.8,11.7,77,0.00,,,0.00,55,TxWx,2013-02-01 13:22:00,
2013-02-01 07:27:00,1.8,-4.0,30.28,West,275,5.7,5.7,78,0.00,,,0.00,104,TxWx,2013-02-01 13:27:00,
2013-02-01 07:32:00,1.8,-5.0,30.29,WSW,242,9.0,10.5,77,0.00,,,0.00,129,TxWx,2013-02-01 13:32:00,
2013-02-01 07:37:00,1.9,-5.0,30.29,WNW,282,6.3,7.2,77,0.00,,,0.00,149,TxWx,2013-02-01 13:37:00,
2013-02-01 07:42:00,1.9,-5.0,30.29,WSW,250,10.2,10.2,76,0.00,,,0.00,162,TxWx,2013-02-01 13:42:00,
2013-02-01 07:48:00,1.9,-5.0,30.30,West,272,9.3,9.3,76,0.00,,,0.00,180,TxWx,2013-02-01 13:48:00,
2013-02-01 07:53:00,2.2,-5.0,30.29,West,267,7.2,7.8,75,0.00,,,0.00,196,TxWx,2013-02-01 13:53:00,
2013-02-01 07:58:00,2.3,-5.0,30.29,West,275,9.3,9.3,75,0.00,,,0.00,216,TxWx,2013-02-01 13:58:00,
2013-02-01 08:03:00,1.9,-5.0,30.30,West,263,8.4,9.0,75,0.00,,,0.00,231,TxWx,2013-02-01 14:03:00,
2013-02-01 08:09:00,2.4,-5.0,30.30,West,274,7.8,7.8,75,0.00,,,0.00,246,TxWx,2013-02-01 14:09:00,
2013-02-01 08:14:00,2.5,-5.0,30.30,WNW,285,9.0,9.0,75,0.00,,,0.00,259,TxWx,2013-02-01 14:14:00,
2013-02-01 08:19:00,2.3,-6.0,30.31,WNW,293,11.4,12.9,74,0.00,,,0.00,272,TxWx,2013-02-01 14:19:00,
2013-02-01 08:24:00,2.6,-5.0,30.31,West,276,12.6,12.6,74,0.00,,,0.00,287,TxWx,2013-02-01 14:24:00,
2013-02-01 08:30:00,2.8,-5.0,30.31,West,261,12.0,12.0,73,0.00,,,0.00,302,TxWx,2013-02-01 14:30:00,
2013-02-01 08:35:00,3.3,-5.0,30.31,West,269,6.0,6.9,73,0.00,,,0.00,316,TxWx,2013-02-01 14:35:00,
2013-02-01 08:40:00,3.0,-5.0,30.31,West,264,14.7,14.7,72,0.00,,,0.00,327,TxWx,2013-02-01 14:40:00,
2013-02-01 08:45:00,3.0,-5.0,30.31,West,268,9.0,10.2,72,0.00,,,0.00,344,TxWx,2013-02-01 14:45:00,
2013-02-01 08:50:00,3.4,-5.0,30.32,West,266,6.9,7.2,73,0.00,,,0.00,356,TxWx,2013-02-01 14:50:00,
2013-02-01 08:55:00,3.6,-4.0,30.32,WSW,251,6.0,6.6,73,0.00,,,0.00,368,TxWx,2013-02-01 14:55:00,
2013-02-01 09:01:00,3.3,-5.0,30.32,West,262,14.1,14.1,73,0.00,,,0.00,384,TxWx,2013-02-01 15:01:00,
2013-02-01 09:06:00,3.3,-5.0,30.32,West,273,12.9,12.9,73,0.00,,,0.00,394,TxWx,2013-02-01 15:06:00,
2013-02-01 09:11:00,3.6,-4.0,30.32,West,273,10.8,10.8,72,0.00,,,0.00,405,TxWx,2013-02-01 15:11:00,
2013-02-01 09:16:00,4.0,-4.0,30.32,West,277,11.7,11.7,72,0.00,,,0.00,416,TxWx,2013-02-01 15:16:00,
2013-02-01 09:21:00,4.4,-4.0,30.32,WSW,249,11.4,12.3,73,0.00,,,0.00,426,TxWx,2013-02-01 15:21:00,
2013-02-01 09:26:00,4.1,-4.0,30.32,West,266,12.0,12.0,71,0.00,,,0.00,440,TxWx,2013-02-01 15:26:00,
2013-02-01 09:31:00,4.6,-3.0,30.32,NW,315,6.0,7.8,71,0.00,,,0.00,452,TxWx,2013-02-01 15:31:00,
2013-02-01 09:36:00,5.0,-4.0,30.32,WNW,297,9.0,10.5,70,0.00,,,0.00,483,TxWx,2013-02-01 15:36:00,
2013-02-01 09:42:00,4.8,-4.0,30.32,WNW,297,10.5,10.5,69,0.00,,,0.00,505,TxWx,2013-02-01 15:42:00,
2013-02-01 09:47:00,5.3,-4.0,30.32,WSW,258,7.2,7.8,70,0.00,,,0.00,500,TxWx,2013-02-01 15:47:00,
2013-02-01 09:52:00,5.0,-4.0,30.33,West,270,7.2,7.2,69,0.00,,,0.00,529,TxWx,2013-02-01 15:52:00,
2013-02-01 09:57:00,4.8,-4.0,30.33,West,271,12.0,12.0,70,0.00,,,0.00,525,TxWx,2013-02-01 15:57:00,
2013-02-01 10:02:00,5.1,-4.0,30.33,West,278,9.0,9.3,70,0.00,,,0.00,568,TxWx,2013-02-01 16:02:00,
2013-02-01 10:07:00,4.9,-4.0,30.33,WSW,253,14.7,15.3,69,0.00,,,0.00,550,TxWx,2013-02-01 16:07:00,
2013-02-01 10:12:00,4.8,-4.0,30.33,West,265,10.8,10.8,69,0.00,,,0.00,425,TxWx,2013-02-01 16:12:00,
2013-02-01 10:18:00,5.6,-3.0,30.34,WNW,292,11.7,15.0,69,0.00,,,0.00,579,TxWx,2013-02-01 16:18:00,
2013-02-01 10:23:00,5.6,-3.0,30.34,West,277,8.7,10.2,68,0.00,,,0.00,548,TxWx,2013-02-01 16:23:00,
2013-02-01 10:28:00,6.2,-3.0,30.34,West,276,11.4,11.4,68,0.00,,,0.00,674,TxWx,2013-02-01 16:28:00,
2013-02-01 10:33:00,6.1,-3.0,30.34,West,261,13.2,13.2,68,0.00,,,0.00,618,TxWx,2013-02-01 16:33:00,
2013-02-01 10:38:00,5.5,-4.0,30.34,West,278,12.6,14.1,67,0.00,,,0.00,616,TxWx,2013-02-01 16:38:00,
2013-02-01 10:43:00,5.5,-3.0,30.34,West,262,13.5,15.9,69,0.00,,,0.00,345,TxWx,2013-02-01 16:43:00,
2013-02-01 10:48:00,5.6,-3.0,30.34,WNW,286,9.6,10.2,69,0.00,,,0.00,631,TxWx,2013-02-01 16:48:00,
2013-02-01 10:53:00,6.2,-3.0,30.34,West,275,4.8,4.8,70,0.00,,,0.00,137,TxWx,2013-02-01 16:53:00,
2013-02-01 10:58:00,6.2,-3.0,30.34,West,278,10.8,12.0,69,0.00,,,0.00,620,TxWx,2013-02-01 16:58:00,
2013-02-01 11:03:00,6.8,-2.0,30.34,WSW,254,9.3,9.6,69,0.00,,,0.00,474,TxWx,2013-02-01 17:03:00,
2013-02-01 11:09:00,6.0,-3.0,30.34,West,273,15.3,15.3,69,0.00,,,0.00,145,TxWx,2013-02-01 17:09:00,
2013-02-01 11:14:00,6.1,-3.0,30.34,WSW,245,9.0,10.2,70,0.00,,,0.00,325,TxWx,2013-02-01 17:14:00,
2013-02-01 11:19:00,6.2,-3.0,30.34,West,270,11.1,12.0,70,0.00,,,0.00,393,TxWx,2013-02-01 17:19:00,
2013-02-01 11:25:00,6.7,-2.0,30.34,West,270,7.8,10.2,71,0.00,,,0.00,309,TxWx,2013-02-01 17:25:00,
2013-02-01 11:30:00,6.7,-2.0,30.34,West,268,9.9,12.0,69,0.00,,,0.00,683,TxWx,2013-02-01 17:30:00,
2013-02-01 11:35:00,6.7,-2.0,30.34,West,273,14.4,14.4,69,0.00,,,0.00,721,TxWx,2013-02-01 17:35:00,
2013-02-01 11:40:00,6.9,-2.0,30.33,West,276,9.6,10.2,68,0.00,,,0.00,676,TxWx,2013-02-01 17:40:00,
2013-02-01 11:45:00,7.9,-1.0,30.33,SW,231,6.0,6.9,70,0.00,,,0.00,399,TxWx,2013-02-01 17:45:00,
2013-02-01 11:50:00,7.4,-2.0,30.33,West,279,17.1,17.1,68,0.00,,,0.00,337,TxWx,2013-02-01 17:50:00,
2013-02-01 11:56:00,7.6,-1.0,30.33,West,274,8.7,11.1,69,0.00,,,0.00,679,TxWx,2013-02-01 17:56:00,
2013-02-01 12:01:00,7.7,-2.0,30.32,SW,232,9.0,9.3,68,0.00,,,0.00,766,TxWx,2013-02-01 18:01:00,
2013-02-01 12:06:00,8.4,-2.0,30.32,West,263,12.9,14.7,68,0.00,,,0.00,666,TxWx,2013-02-01 18:06:00,
2013-02-01 12:11:00,8.3,-2.0,30.33,WSW,252,16.2,16.2,67,0.00,,,0.00,679,TxWx,2013-02-01 18:11:00,
2013-02-01 12:16:00,8.2,-2.0,30.32,WSW,252,18.9,19.2,67,0.00,,,0.00,643,TxWx,2013-02-01 18:16:00,
2013-02-01 12:22:00,8.5,-2.0,30.32,West,276,12.3,12.9,67,0.00,,,0.00,641,TxWx,2013-02-01 18:22:00,
2013-02-01 12:27:00,8.9,-1.0,30.31,WSW,255,11.4,13.8,68,0.00,,,0.00,637,TxWx,2013-02-01 18:27:00,
2013-02-01 12:32:00,9.4,-1.0,30.31,WSW,248,6.9,9.0,68,0.00,,,0.00,628,TxWx,2013-02-01 18:32:00,
2013-02-01 12:37:00,9.7,0.0,30.31,WSW,249,12.6,15.3,67,0.00,,,0.00,626,TxWx,2013-02-01 18:37:00,
2013-02-01 12:42:00,10.3,0.0,30.31,SW,230,7.5,7.5,67,0.00,,,0.00,631,TxWx,2013-02-01 18:42:00,
2013-02-01 12:47:00,10.3,0.0,30.31,West,259,8.7,9.3,67,0.00,,,0.00,627,TxWx,2013-02-01 18:47:00,
2013-02-01 12:53:00,10.7,1.0,30.30,WSW,249,5.7,5.7,65,0.00,,,0.00,625,TxWx,2013-02-01 18:53:00,
2013-02-01 12:58:00,9.9,-1.0,30.31,West,271,20.1,20.1,64,0.00,,,0.00,639,TxWx,2013-02-01 18:58:00,
2013-02-01 13:03:00,10.1,-1.0,30.31,SW,229,8.4,8.4,64,0.00,,,0.00,615,TxWx,2013-02-01 19:03:00,
2013-02-01 13:08:00,10.5,-1.0,30.31,West,276,14.1,14.1,63,0.00,,,0.00,609,TxWx,2013-02-01 19:08:00,
2013-02-01 13:13:00,10.8,0.0,30.30,WNW,294,7.2,8.4,64,0.00,,,0.00,603,TxWx,2013-02-01 19:13:00,
2013-02-01 13:18:00,11.2,0.0,30.30,WNW,291,11.1,11.7,63,0.00,,,0.00,594,TxWx,2013-02-01 19:18:00,
2013-02-01 13:24:00,11.3,0.0,30.30,West,262,8.4,9.3,63,0.00,,,0.00,585,TxWx,2013-02-01 19:24:00,
2013-02-01 13:29:00,10.6,0.0,30.30,West,263,12.6,14.7,63,0.00,,,0.00,577,TxWx,2013-02-01 19:29:00,
2013-02-01 13:34:00,10.5,-1.0,30.30,WNW,289,14.4,17.1,63,0.00,,,0.00,573,TxWx,2013-02-01 19:34:00,
2013-02-01 13:39:00,11.1,0.0,30.30,WSW,243,15.6,15.6,63,0.00,,,0.00,563,TxWx,2013-02-01 19:39:00,
2013-02-01 13:44:00,11.4,0.0,30.30,West,278,9.3,9.3,63,0.00,,,0.00,555,TxWx,2013-02-01 19:44:00,
2013-02-01 13:49:00,11.8,1.0,30.30,WSW,253,12.9,12.9,63,0.00,,,0.00,573,TxWx,2013-02-01 19:49:00,
2013-02-01 13:55:00,11.7,0.0,30.30,WSW,241,9.6,9.6,62,0.00,,,0.00,588,TxWx,2013-02-01 19:55:00,
2013-02-01 14:00:00,11.8,0.0,30.29,WNW,284,9.9,9.9,62,0.00,,,0.00,593,TxWx,2013-02-01 20:00:00,
2013-02-01 14:05:00,11.4,-1.0,30.29,West,279,17.7,18.0,61,0.00,,,0.00,531,TxWx,2013-02-01 20:05:00,
2013-02-01 14:10:00,11.5,0.0,30.29,West,270,14.7,15.0,62,0.00,,,0.00,397,TxWx,2013-02-01 20:10:00,
2013-02-01 14:15:00,12.0,0.0,30.29,West,261,17.7,17.7,61,0.00,,,0.00,496,TxWx,2013-02-01 20:15:00,
2013-02-01 14:21:00,12.7,1.0,30.29,WSW,248,14.7,14.7,61,0.00,,,0.00,492,TxWx,2013-02-01 20:21:00,
2013-02-01 14:26:00,12.5,0.0,30.28,West,265,7.5,7.5,62,0.00,,,0.00,473,TxWx,2013-02-01 20:26:00,
2013-02-01 14:31:00,12.6,1.0,30.28,West,260,7.2,7.5,62,0.00,,,0.00,473,TxWx,2013-02-01 20:31:00,
2013-02-01 14:36:00,12.2,0.0,30.28,West,278,12.3,12.3,62,0.00,,,0.00,464,TxWx,2013-02-01 20:36:00,
2013-02-01 14:41:00,13.2,1.0,30.28,WSW,251,8.4,8.4,62,0.00,,,0.00,452,TxWx,2013-02-01 20:41:00,
2013-02-01 14:46:00,13.0,1.0,30.28,WSW,249,8.4,9.9,62,0.00,,,0.00,439,TxWx,2013-02-01 20:46:00,
2013-02-01 14:52:00,13.5,3.0,30.28,SW,227,12.3,12.3,63,0.00,,,0.00,447,TxWx,2013-02-01 20:52:00,
2013-02-01 14:57:00,13.8,2.0,30.28,SW,218,7.8,7.8,62,0.00,,,0.00,440,TxWx,2013-02-01 20:57:00,
2013-02-01 15:01:00,12.8,1.0,30.28,West,275,12.3,12.9,61,0.00,,,0.00,118,TxWx,2013-02-01 21:01:00,
2013-02-01 15:07:00,12.9,2.0,30.28,SW,229,11.4,11.4,63,0.00,,,0.00,219,TxWx,2013-02-01 21:07:00,
2013-02-01 15:12:00,12.8,2.0,30.28,West,267,9.0,11.4,64,0.00,,,0.00,449,TxWx,2013-02-01 21:12:00,
2013-02-01 15:17:00,13.2,2.0,30.28,West,270,8.4,9.9,63,0.00,,,0.00,441,TxWx,2013-02-01 21:17:00,
2013-02-01 15:22:00,13.1,1.0,30.28,WSW,257,9.0,9.6,62,0.00,,,0.00,255,TxWx,2013-02-01 21:22:00,
2013-02-01 15:27:00,12.9,2.0,30.28,WSW,257,5.7,5.7,63,0.00,,,0.00,158,TxWx,2013-02-01 21:27:00,
2013-02-01 15:32:00,13.3,2.0,30.28,WSW,245,9.3,9.6,64,0.00,,,0.00,300,TxWx,2013-02-01 21:32:00,
2013-02-01 15:37:00,13.2,2.0,30.27,West,266,9.0,10.2,63,0.00,,,0.00,225,TxWx,2013-02-01 21:37:00,
2013-02-01 15:43:00,13.4,2.0,30.27,WSW,249,8.1,8.1,63,0.00,,,0.00,331,TxWx,2013-02-01 21:43:00,
2013-02-01 15:48:00,13.8,3.0,30.27,SW,223,6.0,6.3,63,0.00,,,0.00,314,TxWx,2013-02-01 21:48:00,
2013-02-01 15:53:00,13.3,1.0,30.27,West,280,17.4,17.4,61,0.00,,,0.00,229,TxWx,2013-02-01 21:53:00,
2013-02-01 15:58:00,13.4,1.0,30.27,West,262,7.5,7.5,62,0.00,,,0.00,248,TxWx,2013-02-01 21:58:00,
2013-02-01 16:04:00,13.4,2.0,30.27,WSW,257,5.4,5.4,63,0.00,,,0.00,231,TxWx,2013-02-01 22:04:00,
2013-02-01 16:09:00,13.3,2.0,30.27,West,281,6.0,6.9,63,0.00,,,0.00,196,TxWx,2013-02-01 22:09:00,
2013-02-01 16:14:00,12.9,2.0,30.27,WSW,257,8.4,9.9,65,0.00,,,0.00,83,TxWx,2013-02-01 22:14:00,
2013-02-01 16:19:00,12.9,3.0,30.27,WSW,256,9.3,9.3,66,0.00,,,0.00,66,TxWx,2013-02-01 22:19:00,
2013-02-01 16:24:00,12.9,3.0,30.27,West,278,11.7,13.5,66,0.00,,,0.00,47,TxWx,2013-02-01 22:24:00,
2013-02-01 16:29:00,12.9,3.0,30.27,West,269,11.4,11.4,67,0.00,,,0.00,76,TxWx,2013-02-01 22:29:00,
2013-02-01 16:35:00,13.1,3.0,30.27,West,272,9.6,9.6,67,0.00,,,0.00,65,TxWx,2013-02-01 22:35:00,
2013-02-01 16:40:00,13.3,3.0,30.27,WSW,257,7.5,8.7,67,0.00,,,0.00,36,TxWx,2013-02-01 22:40:00,
2013-02-01 16:45:00,13.2,3.0,30.27,West,272,8.1,9.0,66,0.00,,,0.00,31,TxWx,2013-02-01 22:45:00,
2013-02-01 16:50:00,13.2,3.0,30.27,West,267,13.5,13.5,67,0.00,,,0.00,21,TxWx,2013-02-01 22:50:00,
2013-02-01 16:55:00,13.0,3.0,30.27,WSW,251,7.8,7.8,67,0.00,,,0.00,10,TxWx,2013-02-01 22:55:00,
2013-02-01 17:00:00,13.1,3.0,30.26,WSW,256,6.9,8.1,68,0.00,,,0.00,6,TxWx,2013-02-01 23:00:00,
2013-02-01 17:06:00,13.0,3.0,30.27,WSW,251,11.4,11.4,68,0.00,,,0.00,3,TxWx,2013-02-01 23:06:00,
2013-02-01 17:11:00,12.9,3.0,30.26,WSW,254,9.9,10.5,68,0.00,,,0.00,1,TxWx,2013-02-01 23:11:00,
2013-02-01 17:16:00,13.0,3.0,30.26,WSW,255,6.0,6.3,68,0.00,,,0.00,0,TxWx,2013-02-01 23:16:00,
2013-02-01 17:21:00,13.0,4.0,30.26,West,261,5.4,5.4,69,0.00,,,0.00,0,TxWx,2013-02-01 23:21:00,
2013-02-01 17:26:00,13.0,4.0,30.26,SW,236,3.6,3.6,69,0.00,,,0.00,0,TxWx,2013-02-01 23:26:00,
2013-02-01 17:32:00,13.0,4.0,30.26,West,267,6.9,6.9,69,0.00,,,0.00,0,TxWx,2013-02-01 23:32:00,
2013-02-01 17:37:00,13.1,3.0,30.26,West,270,3.3,3.9,68,0.00,,,0.00,0,TxWx,2013-02-01 23:37:00,
2013-02-01 17:42:00,13.1,3.0,30.26,WSW,243,5.1,5.4,68,0.00,,,0.00,0,TxWx,2013-02-01 23:42:00,
2013-02-01 17:47:00,13.1,4.0,30.26,WSW,246,4.2,4.5,69,0.00,,,0.00,0,TxWx,2013-02-01 23:47:00,
2013-02-01 17:52:00,13.1,3.0,30.26,WSW,241,4.5,4.5,68,0.00,,,0.00,0,TxWx,2013-02-01 23:52:00,
2013-02-01 17:58:00,13.1,4.0,30.26,WSW,255,5.4,6.0,69,0.00,,,0.00,0,TxWx,2013-02-01 23:58:00,
2013-02-01 18:03:00,13.1,4.0,30.26,West,262,9.9,10.8,69,0.00,,,0.00,0,TxWx,2013-02-02 00:03:00,
2013-02-01 18:08:00,13.2,4.0,30.26,West,265,5.1,6.0,69,0.00,,,0.00,0,TxWx,2013-02-02 00:08:00,
2013-02-01 18:13:00,13.1,4.0,30.26,West,272,6.3,6.6,69,0.00,,,0.00,0,TxWx,2013-02-02 00:13:00,
2013-02-01 18:18:00,13.1,4.0,30.26,WSW,242,8.7,8.7,69,0.00,,,0.00,0,TxWx,2013-02-02 00:18:00,
2013-02-01 18:23:00,13.1,4.0,30.26,WSW,251,4.2,4.2,70,0.00,,,0.00,0,TxWx,2013-02-02 00:23:00,
2013-02-01 18:29:00,13.1,4.0,30.26,WSW,255,3.6,3.6,70,0.00,,,0.00,0,TxWx,2013-02-02 00:29:00,
2013-02-01 18:34:00,13.0,4.0,30.26,WSW,238,6.6,6.6,70,0.00,,,0.00,0,TxWx,2013-02-02 00:34:00,
2013-02-01 18:39:00,13.0,4.0,30.26,WSW,237,5.7,6.3,71,0.00,,,0.00,0,TxWx,2013-02-02 00:39:00,
2013-02-01 18:44:00,13.0,4.0,30.26,WSW,254,8.1,8.1,71,0.00,,,0.00,0,TxWx,2013-02-02 00:44:00,
2013-02-01 18:49:00,13.0,4.0,30.25,West,265,7.5,7.5,71,0.00,,,0.00,0,TxWx,2013-02-02 00:49:00,
2013-02-01 18:55:00,13.0,4.0,30.25,West,261,4.2,4.2,71,0.00,,,0.00,0,TxWx,2013-02-02 00:55:00,
2013-02-01 19:00:00,13.0,5.0,30.25,West,262,3.0,3.0,72,0.00,,,0.00,0,TxWx,2013-02-02 01:00:00,
2013-02-01 19:05:00,13.0,5.0,30.25,WSW,246,5.1,5.4,72,0.00,,,0.00,0,TxWx,2013-02-02 01:05:00,
2013-02-01 19:10:00,13.1,5.0,30.25,SW,223,4.2,5.4,72,0.00,,,0.00,0,TxWx,2013-02-02 01:10:00,
2013-02-01 19:16:00,13.2,5.0,30.25,SW,224,4.2,4.2,72,0.00,,,0.00,0,TxWx,2013-02-02 01:16:00,
2013-02-01 19:21:00,13.3,5.0,30.25,West,260,5.1,5.4,72,0.00,,,0.00,0,TxWx,2013-02-02 01:21:00,
2013-02-01 19:26:00,13.5,5.0,30.25,WSW,243,4.5,4.5,73,0.00,,,0.00,0,TxWx,2013-02-02 01:26:00,
2013-02-01 19:31:00,13.5,6.0,30.24,SW,235,1.8,2.1,73,0.00,,,0.00,0,TxWx,2013-02-02 01:31:00,
2013-02-01 19:36:00,13.4,5.0,30.24,WSW,247,6.6,7.8,73,0.00,,,0.00,0,TxWx,2013-02-02 01:36:00,
2013-02-01 19:41:00,13.6,6.0,30.24,SSW,211,3.0,3.0,73,0.00,,,0.00,0,TxWx,2013-02-02 01:41:00,
2013-02-01 19:47:00,13.6,6.0,30.24,SW,232,3.3,3.3,73,0.00,,,0.00,0,TxWx,2013-02-02 01:47:00,
2013-02-01 19:52:00,13.6,6.0,30.24,SW,235,3.0,3.0,73,0.00,,,0.00,0,TxWx,2013-02-02 01:52:00,
2013-02-01 19:57:00,13.6,6.0,30.23,SW,218,3.9,3.9,73,0.00,,,0.00,0,TxWx,2013-02-02 01:57:00,
2013-02-01 20:02:00,13.7,6.0,30.23,WSW,242,4.8,5.7,74,0.00,,,0.00,0,TxWx,2013-02-02 02:02:00,
2013-02-01 20:07:00,13.7,6.0,30.23,SW,228,3.0,3.3,74,0.00,,,0.00,0,TxWx,2013-02-02 02:07:00,
2013-02-01 20:13:00,13.9,6.0,30.23,SW,223,5.1,5.1,74,0.00,,,0.00,0,TxWx,2013-02-02 02:13:00,
2013-02-01 20:18:00,14.0,6.0,30.23,WSW,241,2.7,2.7,74,0.00,,,0.00,0,TxWx,2013-02-02 02:18:00,
2013-02-01 20:23:00,14.3,6.0,30.23,SW,235,2.7,3.0,74,0.00,,,0.00,0,TxWx,2013-02-02 02:23:00,
2013-02-01 20:28:00,14.4,6.0,30.22,SSW,203,3.0,3.3,74,0.00,,,0.00,0,TxWx,2013-02-02 02:28:00,
2013-02-01 20:34:00,14.5,7.0,30.23,WSW,237,3.6,3.6,74,0.00,,,0.00,0,TxWx,2013-02-02 02:34:00,
2013-02-01 20:39:00,14.6,7.0,30.22,WSW,250,3.3,3.3,74,0.00,,,0.00,0,TxWx,2013-02-02 02:39:00,
2013-02-01 20:44:00,14.8,7.0,30.22,SSW,209,7.2,7.2,73,0.00,,,0.00,0,TxWx,2013-02-02 02:44:00,
2013-02-01 20:49:00,14.8,7.0,30.22,SSW,202,5.7,5.7,73,0.00,,,0.00,0,TxWx,2013-02-02 02:49:00,
2013-02-01 20:54:00,15.1,7.0,30.22,SW,231,4.8,4.8,72,0.00,,,0.00,0,TxWx,2013-02-02 02:54:00,
2013-02-01 20:59:00,15.1,6.0,30.21,WSW,253,4.8,4.8,72,0.00,,,0.00,0,TxWx,2013-02-02 02:59:00,
2013-02-01 21:04:00,15.2,6.0,30.21,SW,228,6.6,7.5,71,0.00,,,0.00,0,TxWx,2013-02-02 03:04:00,
2013-02-01 21:09:00,15.2,6.0,30.21,SW,217,7.2,7.2,71,0.00,,,0.00,0,TxWx,2013-02-02 03:09:00,
2013-02-01 21:14:00,15.4,6.0,30.21,SW,232,3.6,4.2,71,0.00,,,0.00,0,TxWx,2013-02-02 03:14:00,
2013-02-01 21:19:00,15.3,6.0,30.21,SSW,198,3.3,3.3,71,0.00,,,0.00,0,TxWx,2013-02-02 03:19:00,
2013-02-01 21:24:00,15.3,6.0,30.21,SSW,212,6.9,7.5,71,0.00,,,0.00,0,TxWx,2013-02-02 03:24:00,
2013-02-01 21:29:00,15.3,6.0,30.21,SW,221,5.7,8.1,71,0.00,,,0.00,0,TxWx,2013-02-02 03:29:00,
2013-02-01 21:34:00,15.4,6.0,30.21,West,275,2.4,3.0,71,0.00,,,0.00,0,TxWx,2013-02-02 03:34:00,
2013-02-01 21:40:00,15.4,6.0,30.21,SSW,205,7.2,7.2,71,0.00,,,0.00,0,TxWx,2013-02-02 03:40:00,
2013-02-01 21:45:00,15.5,7.0,30.21,West,276,7.2,7.2,71,0.00,,,0.00,0,TxWx,2013-02-02 03:45:00,
2013-02-01 21:50:00,15.6,7.0,30.21,WSW,257,8.7,8.7,71,0.00,,,0.00,0,TxWx,2013-02-02 03:50:00,
2013-02-01 21:55:00,15.6,7.0,30.21,SW,230,9.9,10.5,71,0.00,,,0.00,0,TxWx,2013-02-02 03:55:00,
2013-02-01 22:00:00,15.7,7.0,30.21,West,275,3.6,3.9,71,0.00,,,0.00,0,TxWx,2013-02-02 04:00:00,
2013-02-01 22:05:00,15.7,7.0,30.20,West,269,4.2,4.5,71,0.00,,,0.00,0,TxWx,2013-02-02 04:05:00,
2013-02-01 22:11:00,15.8,7.0,30.20,WSW,258,4.8,4.8,72,0.00,,,0.00,0,TxWx,2013-02-02 04:11:00,
2013-02-01 22:16:00,15.8,8.0,30.21,WSW,252,3.6,3.9,72,0.00,,,0.00,0,TxWx,2013-02-02 04:16:00,
2013-02-01 22:21:00,15.8,8.0,30.20,WSW,245,5.7,6.9,73,0.00,,,0.00,0,TxWx,2013-02-02 04:21:00,
2013-02-01 22:26:00,15.9,8.0,30.20,WSW,256,3.6,3.9,74,0.00,,,0.00,0,TxWx,2013-02-02 04:26:00,
2013-02-01 22:31:00,15.9,8.0,30.20,SW,231,4.5,4.5,74,0.00,,,0.00,0,TxWx,2013-02-02 04:31:00,
2013-02-01 22:36:00,16.0,9.0,30.20,WSW,256,7.5,7.5,76,0.00,,,0.00,0,TxWx,2013-02-02 04:36:00,
2013-02-01 22:42:00,15.9,9.0,30.20,WSW,258,3.9,3.9,77,0.00,,,0.00,0,TxWx,2013-02-02 04:42:00,
2013-02-01 22:47:00,15.8,9.0,30.20,WSW,248,3.9,4.5,78,0.00,,,0.00,0,TxWx,2013-02-02 04:47:00,
2013-02-01 22:52:00,15.8,10.0,30.20,WSW,242,3.9,3.9,79,0.00,,,0.00,0,TxWx,2013-02-02 04:52:00,
2013-02-01 22:57:00,15.8,10.0,30.19,WSW,247,1.8,2.1,79,0.00,,,0.00,0,TxWx,2013-02-02 04:57:00,
2013-02-01 23:00:00,15.8,10.0,30.19,SW,222,3.3,3.3,80,0.00,,,0.00,0,TxWx,2013-02-02 05:00:00,
2013-02-01 23:01:00,15.8,10.0,30.19,WSW,242,3.6,3.6,80,0.00,,,0.00,0,TxWx,2013-02-02 05:01:00,
2013-02-01 23:06:00,15.8,10.0,30.19,SSW,200,1.8,1.8,81,0.00,,,0.00,0,TxWx,2013-02-02 05:06:00,
2013-02-01 23:11:00,15.8,10.0,30.19,SSW,201,3.6,3.6,82,0.00,,,0.00,0,TxWx,2013-02-02 05:11:00,
2013-02-01 23:16:00,15.9,11.0,30.19,SW,226,1.8,1.8,83,0.00,,,0.00,0,TxWx,2013-02-02 05:16:00,
2013-02-01 23:22:00,15.8,11.0,30.19,SSW,211,4.5,5.1,83,0.00,,,0.00,0,TxWx,2013-02-02 05:22:00,
2013-02-01 23:27:00,15.8,11.0,30.19,SSW,212,3.9,4.5,84,0.00,,,0.00,0,TxWx,2013-02-02 05:27:00,
2013-02-01 23:32:00,15.8,11.0,30.19,SSW,197,3.9,4.2,85,0.00,,,0.00,0,TxWx,2013-02-02 05:32:00,
2013-02-01 23:37:00,15.9,11.0,30.19,SSW,206,4.5,4.5,86,0.00,,,0.00,0,TxWx,2013-02-02 05:37:00,
2013-02-01 23:42:00,15.9,11.0,30.18,SW,215,3.9,3.9,86,0.00,,,0.00,0,TxWx,2013-02-02 05:42:00,
2013-02-01 23:48:00,16.0,12.0,30.19,SSW,204,1.5,1.5,87,0.00,,,0.00,0,TxWx,2013-02-02 05:48:00,
2013-02-01 23:53:00,16.0,12.0,30.18,WSW,257,2.1,2.1,87,0.00,,,0.00,0,TxWx,2013-02-02 05:53:00,
2013-02-01 23:58:00,16.0,12.0,30.18,SW,233,3.9,3.9,88,0.00,,,0.00,0,TxWx,2013-02-02 05:58:00,